Latest Coastal Weather Observations for Sunshine Coast Airport

IDQ60701

Issued at 1:02 pm EST Tuesday 11 December 2018 (issued every 10 minutes, with the page automatically refreshed every 10 minutes)

About coastal observations | Map of coastal stations | Coastal observations for QLD | Marine services | Other Formats
Station Details ID: 040861 Name: SUNSHINE COAST AIRPORT Lat: -26.60 Lon: 153.09 Height: 3.42 m
Data from the previous 72 hours. | See also: Recent months at Sunshine Coast Airport
Date/Time
EST
Wind Sea
Height
m
Swell Vis
km
Cloud Weather Temp
°C
Press
hPa
Rain since
9am
mm
Dir  Spd
kts
Gust
kts
Height
m
Period
s
Dir
11/01:00pm ESE 9 13 - - - - 10 Partly cloudy - 26.9 1015.5 0.0
11/12:30pm ESE 10 14 - - - - 10 Partly cloudy - 26.4 1015.5 0.0
11/12:00pm SE 9 12 - - - - 10 Mostly clear - 26.9 1015.7 0.0
11/11:30am SE 10 13 - - - - 10 Partly cloudy - 26.2 1015.7 0.0
11/11:00am SE 11 13 - - - - 10 - - 26.4 1016.0 0.0
11/10:30am SE 11 15 - - - - 10 Partly cloudy - 25.9 1016.0 0.0
11/10:00am E 7 9 - - - - - - - 26.5 1016.1 0.0
11/09:30am ESE 7 10 - - - - - - - 25.9 1016.2 0.0
11/09:00am E 6 9 - - - - - - - 26.0 1015.9 0.0
11/08:30am ESE 6 8 - - - - 10 - - 25.4 1015.8 0.0
11/08:00am SSE 5 7 - - - - - Partly cloudy - 25.2 1015.9 0.0
11/07:30am SSW 6 8 - - - - - Partly cloudy - 23.3 1015.9 0.0
11/07:00am WSW 4 5 - - - - - Partly cloudy - 21.7 1015.3 0.0
11/06:30am WSW 4 5 - - - - 10 Partly cloudy - 20.8 1015.0 0.0
11/06:00am WSW 4 5 - - - - 10 - - 20.4 1014.9 0.0
11/05:30am WSW 3 4 - - - - - Partly cloudy - 19.5 1014.5 0.0
11/05:00am WSW 4 4 - - - - - Partly cloudy - 18.6 1014.2 0.0
11/04:30am WSW 4 5 - - - - 10 Partly cloudy - 18.8 1014.0 0.0
11/04:00am SSW 6 7 - - - - 10 Partly cloudy - 19.4 1014.1 0.0
11/03:30am W 3 4 - - - - - Partly cloudy - 19.3 1014.0 0.0
11/03:00am WSW 3 4 - - - - - Mostly cloudy - 19.7 1014.0 0.0
11/02:30am SSW 4 5 - - - - - Partly cloudy - 19.8 1013.8 0.0
11/02:00am SSW 5 6 - - - - - Partly cloudy - 19.9 1014.2 0.0
11/01:30am SW 4 5 - - - - - Partly cloudy - 20.2 1014.4 0.0
11/01:00am SW 4 5 - - - - 10 Partly cloudy - 20.3 1014.8 0.0
11/12:30am SW 4 5 - - - - 10 Partly cloudy - 20.4 1014.9 0.0
11/12:00am W 5 6 - - - - 10 Mostly clear - 20.4 1015.1 0.0
 
Date/Time
EST
Wind Sea
Height
m
Swell Vis
km
Cloud Weather Temp
°C
Press
hPa
Rain since
9am
mm
Dir  Spd
kts
Gust
kts
Height
m
Period
s
Dir
10/11:30pm NNE 4 7 - - - - 10 Partly cloudy - 21.4 1015.3 0.0
10/11:00pm ENE 7 9 - - - - 10 Partly cloudy - 22.9 1015.4 0.0
10/10:30pm ENE 7 9 - - - - 10 Partly cloudy - 23.0 1015.7 0.0
10/10:00pm ENE 7 9 - - - - 10 Partly cloudy - 22.9 1015.8 0.0
10/09:30pm ENE 7 9 - - - - 10 - - 23.2 1015.9 0.0
10/09:00pm ENE 9 11 - - - - 10 Mostly clear - 23.2 1015.8 0.0
10/08:30pm ENE 8 9 - - - - 10 Partly cloudy - 23.3 1015.7 0.0
10/08:00pm ENE 6 8 - - - - - Partly cloudy - 23.3 1015.6 0.0
10/07:30pm ENE 7 9 - - - - - - - 23.3 1015.3 0.0
10/07:00pm NE 7 9 - - - - - - - 23.2 1014.9 0.0
10/06:30pm NE 8 10 - - - - - - - 23.7 1014.7 0.0
10/06:00pm ENE 8 11 - - - - - - - 24.4 1014.3 0.0
10/05:30pm ENE 9 12 - - - - 10 Partly cloudy - 24.6 1013.9 0.0
10/05:00pm ENE 10 13 - - - - 10 - - 25.0 1013.6 0.0
10/04:55pm ENE 9 12 - - - - 10 - - 24.7 1013.6 0.0
10/04:35pm ENE 9 12 - - - - 4 - - 24.9 1013.8 0.0
10/04:30pm ENE 9 11 - - - - - - - 24.8 1013.9 0.0
10/04:00pm ENE 9 11 - - - - - - - 25.7 1014.1 0.0
10/03:30pm ENE 9 11 - - - - - - - 26.5 1014.1 0.0
10/03:00pm ENE 9 11 - - - - - Partly cloudy - 26.4 1014.2 0.0
10/02:30pm ENE 8 10 - - - - - - - 26.5 1014.5 0.0
10/02:00pm ENE 9 11 - - - - - - - 26.4 1014.6 0.0
10/01:30pm ENE 8 11 - - - - - Partly cloudy - 27.0 1014.7 0.0
10/01:00pm NE 9 12 - - - - - Cloudy - 26.2 1014.8 0.0
10/12:30pm NE 11 15 - - - - - Cloudy - 26.3 1015.1 0.0
10/12:00pm ENE 10 13 - - - - - Partly cloudy - 26.5 1015.1 0.0
10/11:30am E 9 11 - - - - - Cloudy - 26.6 1015.3 0.0
10/11:00am ENE 9 11 - - - - - Partly cloudy - 27.1 1015.5 0.0
10/10:30am E 9 11 - - - - - - - 27.2 1015.6 0.0
10/10:00am ENE 8 10 - - - - - - - 26.2 1015.8 0.0
10/09:30am ENE 8 10 - - - - - - - 25.9 1015.9 0.0
10/09:00am E 9 11 - - - - - Mostly clear - 26.4 1016.0 -
10/08:30am - - - - - - - - - - 25.8 1015.9 -
10/08:00am E 8 10 - - - - - Partly cloudy - 25.7 1015.9 1.2
10/07:30am E 9 11 - - - - - Partly cloudy - 25.5 1015.7 1.2
10/07:00am E 9 12 - - - - - Partly cloudy - 25.1 1015.7 1.2
10/06:30am ENE 8 10 - - - - - - - 24.5 1015.3 1.2
10/06:00am ENE 8 10 - - - - - Partly cloudy - 24.1 1015.0 1.2
10/05:30am ENE 7 9 - - - - - Partly cloudy - 23.1 1014.9 1.2
10/05:00am E 7 9 - - - - - Partly cloudy - 22.5 1014.4 1.2
10/04:30am E 9 10 - - - - - Partly cloudy - 22.6 1014.3 1.2
10/04:00am E 9 11 - - - - - Partly cloudy - 22.9 1014.2 1.2
10/03:30am ESE 7 10 - - - - - Cloudy - 22.8 1014.4 1.2
10/03:00am ESE 8 11 - - - - - Cloudy - 22.8 1014.3 1.2
10/02:30am ESE 9 12 - - - - - Partly cloudy - 23.0 1014.7 1.2
10/02:00am ESE 11 14 - - - - - Partly cloudy - 22.6 1014.9 1.2
10/01:30am ESE 7 10 - - - - - Cloudy - 22.7 1015.3 1.2
10/01:00am ESE 11 16 - - - - - Partly cloudy - 22.0 1015.6 1.2
10/12:30am ESE 10 13 - - - - - Partly cloudy - 23.1 1016.1 1.0
10/12:00am SE 10 14 - - - - - Partly cloudy - 23.0 1016.2 1.0
 
Date/Time
EST
Wind Sea
Height
m
Swell Vis
km
Cloud Weather Temp
°C
Press
hPa
Rain since
9am
mm
Dir  Spd
kts
Gust
kts
Height
m
Period
s
Dir
09/11:30pm ESE 11 14 - - - - - Partly cloudy - 23.0 1016.5 1.0
09/11:00pm ESE 9 13 - - - - - Partly cloudy - 23.1 1016.5 1.0
09/10:30pm ESE 11 15 - - - - - Partly cloudy - 23.1 1016.5 1.0
09/10:00pm ESE 10 13 - - - - - Cloudy - 23.2 1016.8 1.0
09/09:30pm ESE 9 14 - - - - - Cloudy - 23.0 1016.9 1.0
09/09:00pm ESE 8 13 - - - - - Cloudy - 23.0 1016.7 1.0
09/08:30pm SE 10 13 - - - - - - - 22.8 1016.7 1.0
09/08:00pm SE 11 15 - - - - - Partly cloudy - 22.7 1016.9 1.0
09/07:45pm SE 11 15 - - - - - Partly cloudy - 22.7 1016.9 1.0
09/07:30pm E 7 11 - - - - - Partly cloudy - 21.6 1016.9 1.0
09/07:27pm E 8 12 - - - - - Partly cloudy - 21.7 1016.8 1.0
09/07:00pm SE 11 15 - - - - - Partly cloudy - 23.5 1016.7 0.2
09/06:30pm SE 10 15 - - - - - Partly cloudy - 23.6 1016.6 0.2
09/06:00pm SE 11 15 - - - - - Mostly cloudy - 23.9 1016.5 0.2
09/05:30pm ESE 9 12 - - - - - Partly cloudy - 24.6 1016.3 0.2
09/05:00pm ESE 10 15 - - - - - Partly cloudy - 24.9 1015.9 0.2
09/04:30pm SE 10 14 - - - - - Partly cloudy - 24.9 1015.7 0.2
09/04:00pm SE 10 14 - - - - - Partly cloudy - 24.8 1015.7 0.2
09/03:30pm SSE 11 15 - - - - - - - 25.1 1015.5 0.2
09/03:00pm SE 11 14 - - - - - Partly cloudy - 25.4 1015.8 0.2
09/02:30pm SE 9 12 - - - - - Partly cloudy - 25.7 1016.0 0.2
09/02:00pm SE 10 14 - - - - - Partly cloudy - 25.5 1016.4 0.2
09/01:30pm E 10 13 - - - - - Partly cloudy - 26.0 1016.4 0.2
09/01:00pm E 11 13 - - - - - - - 26.1 1016.5 0.2
09/12:30pm E 9 12 - - - - - Partly cloudy - 25.8 1016.8 0.2
09/12:00pm E 10 13 - - - - - Mostly clear - 25.8 1017.3 0.2
09/11:30am E 9 13 - - - - - Partly cloudy - 25.8 1017.3 0.2
09/11:00am E 12 15 - - - - - Partly cloudy - 25.3 1017.5 0.2
09/10:30am E 12 16 - - - - - Partly cloudy - 25.7 1017.5 0.2
09/10:00am E 12 17 - - - - - Partly cloudy - 25.4 1017.5 0.2
09/09:30am E 14 18 - - - - - Partly cloudy - 25.1 1017.4 0.2
09/09:00am E 13 16 - - - - - Cloudy - 23.9 1017.5 4.0
09/08:30am E 11 14 - - - - - Partly cloudy - 24.3 1017.6 4.0
09/08:00am ESE 8 11 - - - - - Partly cloudy - 24.2 1017.6 4.0
09/07:30am ESE 9 13 - - - - - Partly cloudy - 23.3 1017.6 4.0
09/07:00am E 11 15 - - - - - Partly cloudy - 22.4 1017.4 4.0
09/06:30am SE 11 15 - - - - - Partly cloudy - 21.8 1017.3 4.0
09/06:00am SE 11 17 - - - - - Mostly cloudy Rain 21.0 1017.3 4.0
09/05:43am E 13 17 - - - - - Partly cloudy - 20.6 1017.1 3.8
09/05:33am ESE 8 19 - - - - - Partly cloudy - 20.9 1017.0 3.2
09/05:30am E 7 11 - - - - - Partly cloudy - 20.7 1016.9 3.2
09/05:00am ESE 14 19 - - - - - Partly cloudy - 21.7 1016.8 2.2
09/04:30am SE 11 15 - - - - - Partly cloudy - 21.0 1016.5 2.2
09/04:00am SE 13 19 - - - - - Partly cloudy - 20.6 1016.5 2.2
09/03:56am SE 15 25 - - - - - Partly cloudy - 20.6 1016.6 2.2
09/03:45am SE 15 25 - - - - - Partly cloudy - 20.6 1016.5 2.2
09/03:30am S 7 9 - - - - - Partly cloudy - 19.9 1016.4 2.2
09/03:00am SSE 8 11 - - - - - Cloudy - 20.6 1016.7 2.2
09/02:30am SSE 13 18 - - - - - Partly cloudy - 20.8 1017.0 2.2
09/02:00am SE 15 23 - - - - - Partly cloudy - 21.1 1017.2 2.2
09/01:30am SSE 11 15 - - - - - Partly cloudy - 21.3 1017.3 2.2
09/01:00am SE 15 21 - - - - - Partly cloudy - 21.8 1017.6 2.2
09/12:30am SE 15 18 - - - - - Partly cloudy - 22.0 1017.7 2.2
09/12:00am ESE 12 18 - - - - - Cloudy Recent precip. 21.9 1018.2 2.2
 
Date/Time
EST
Wind Sea
Height
m
Swell Vis
km
Cloud Weather Temp
°C
Press
hPa
Rain since
9am
mm
Dir  Spd
kts
Gust
kts
Height
m
Period
s
Dir
08/11:30pm E 13 17 - - - - - Partly cloudy - 20.8 1018.8 2.2
08/11:00pm ESE 12 18 - - - - - Partly cloudy - 22.2 1019.0 1.4
08/10:30pm ESE 12 16 - - - - - Partly cloudy - 22.7 1019.3 1.4
08/10:00pm ESE 11 15 - - - - - Partly cloudy - 22.4 1019.4 1.4
08/09:30pm ESE 14 18 - - - - - Partly cloudy - 22.7 1019.6 1.4
08/09:00pm ESE 15 21 - - - - - Cloudy - 21.9 1019.6 1.4
08/08:30pm ESE 15 20 - - - - - Partly cloudy - 22.8 1019.4 1.4
08/08:00pm ESE 13 18 - - - - - Partly cloudy - 22.8 1019.3 1.4
08/07:30pm ESE 14 19 - - - - - Partly cloudy - 22.6 1019.2 1.4
08/07:00pm ESE 13 17 - - - - - Partly cloudy - 22.5 1018.9 1.4
08/06:30pm ESE 13 18 - - - - - Partly cloudy - 22.6 1018.9 1.4
08/06:00pm E 11 16 - - - - - Cloudy - 22.4 1018.6 1.4
08/05:30pm ESE 12 17 - - - - - Partly cloudy - 23.4 1018.3 1.4
08/05:00pm ESE 13 18 - - - - - Partly cloudy - 23.2 1018.2 1.4
08/04:30pm ESE 12 16 - - - - - Partly cloudy - 23.5 1018.0 1.4
08/04:00pm E 12 16 - - - - - Partly cloudy - 23.7 1017.9 1.4
08/03:30pm SSE 12 17 - - - - - Partly cloudy - 23.5 1017.8 1.4
08/03:00pm SE 17 22 - - - - - Cloudy Recent precip. 22.6 1017.9 1.4
08/02:30pm ESE 13 18 - - - - - Partly cloudy - 24.2 1017.9 1.4
08/02:00pm SE 14 18 - - - - - Partly cloudy - 23.4 1018.2 1.2
08/01:30pm SE 10 13 - - - - - Partly cloudy - 23.3 1018.5 1.2

Other Formats:

Comma delimited format used in spreadsheet applications
http://www.bom.gov.au/fwo/IDQ60701/IDQ60701.94569.axf

JavaScript Object Notation format (JSON) in row-major order
http://www.bom.gov.au/fwo/IDQ60701/IDQ60701.94569.json